createdAt,value
2022-12-19T00:00:26.886Z,-4.26
2022-12-19T00:15:24.048Z,-4.01
2022-12-19T00:30:24.274Z,-4.16
2022-12-19T00:45:24.104Z,-4.13
2022-12-19T01:00:26.067Z,-3.96
2022-12-19T01:15:25.100Z,-3.96
2022-12-19T01:30:24.526Z,-3.86
2022-12-19T01:45:27.686Z,-3.78
2022-12-19T02:00:27.283Z,-3.55
2022-12-19T02:15:24.124Z,-3.66
2022-12-19T02:30:24.912Z,-3.56
2022-12-19T02:45:28.807Z,-3.15
2022-12-19T03:00:30.645Z,-2.98
2022-12-19T03:15:24.387Z,-3.01
2022-12-19T03:30:24.681Z,-3.11
2022-12-19T03:45:33.365Z,-3.01
2022-12-19T04:00:40.276Z,-2.88
2022-12-19T04:15:23.529Z,-2.76
2022-12-19T04:30:23.747Z,-2.66
2022-12-19T04:45:23.478Z,-2.48
2022-12-19T05:00:24.257Z,-2.41
2022-12-19T05:15:23.746Z,-2.13
2022-12-19T05:30:23.733Z,-1.96
2022-12-19T05:45:23.946Z,-1.81
2022-12-19T06:00:28.134Z,-1.86
2022-12-19T06:15:23.769Z,-1.43
2022-12-19T06:30:24.327Z,-1.50
2022-12-19T06:45:23.696Z,-1.65
2022-12-19T07:00:36.208Z,-1.45
2022-12-19T07:15:23.976Z,-1.35
2022-12-19T07:30:24.363Z,-1.27
2022-12-19T07:45:23.957Z,-1.30
2022-12-19T08:00:26.886Z,-1.17
2022-12-19T08:15:23.961Z,-0.98
2022-12-19T08:30:23.925Z,-0.82
2022-12-19T08:45:23.577Z,-0.47
2022-12-19T09:00:28.059Z,-0.48
2022-12-19T09:15:23.902Z,-0.38
2022-12-19T09:30:23.780Z,-0.07
2022-12-19T09:45:32.190Z,0.23
2022-12-19T10:00:24.457Z,0.30
2022-12-19T10:15:24.521Z,0.47
2022-12-19T10:30:24.498Z,0.62
2022-12-19T10:45:24.165Z,0.73
2022-12-19T11:00:35.326Z,0.84
2022-12-19T11:22:08.549Z,1.42
2022-12-19T11:31:29.933Z,1.67
2022-12-19T11:45:23.940Z,1.92
2022-12-19T12:00:33.434Z,2.13
2022-12-19T12:25:09.684Z,2.15
2022-12-19T12:31:49.898Z,2.40
2022-12-19T12:45:24.212Z,2.50
2022-12-19T13:00:39.583Z,2.65
2022-12-19T13:15:24.873Z,2.85
2022-12-19T13:30:24.790Z,2.70
2022-12-19T13:45:24.076Z,2.35
2022-12-19T14:00:35.305Z,2.22
2022-12-19T14:15:23.239Z,2.08
2022-12-19T14:30:28.326Z,2.20
2022-12-19T14:52:35.073Z,1.90
2022-12-19T15:01:08.400Z,1.97
2022-12-19T15:15:23.892Z,1.67
2022-12-19T15:30:27.882Z,1.40
2022-12-19T15:45:23.390Z,1.27
2022-12-19T16:00:28.157Z,1.15
2022-12-19T16:15:24.579Z,1.17
2022-12-19T16:30:25.715Z,1.08
2022-12-19T16:45:23.683Z,1.05
2022-12-19T17:00:23.772Z,1.23
2022-12-19T17:15:23.496Z,0.95
2022-12-19T17:30:26.506Z,0.80
2022-12-19T17:45:23.812Z,0.88
2022-12-19T18:00:31.529Z,1.10
2022-12-19T18:15:24.116Z,0.90
2022-12-19T18:30:28.483Z,1.10
2022-12-19T18:45:23.801Z,1.00
2022-12-19T19:00:31.786Z,1.00
2022-12-19T19:15:23.762Z,0.95
2022-12-19T19:30:27.708Z,1.17
2022-12-19T19:45:23.828Z,0.98
2022-12-19T20:00:27.572Z,0.88
2022-12-19T20:12:12.526Z,0.40
2022-12-19T20:15:24.009Z,1.45
2022-12-19T20:30:32.905Z,1.13
2022-12-19T20:45:33.072Z,0.98
2022-12-19T21:00:35.915Z,0.98
2022-12-19T21:15:23.425Z,1.00
2022-12-19T21:30:23.575Z,1.00
2022-12-19T21:45:23.492Z,0.95
2022-12-19T22:00:24.014Z,0.90
2022-12-19T22:15:23.293Z,0.82
2022-12-19T22:30:23.973Z,0.20
2022-12-19T22:45:23.731Z,0.97
2022-12-19T23:03:08.214Z,0.20
2022-12-19T23:15:23.718Z,0.73
2022-12-19T23:30:25.501Z,0.87
2022-12-19T23:45:23.700Z,0.68
